Aeroporto :
LOGIN :

Iscrizione | Disclaimer

   EN    FR    IT 

 










Sommario :    VFR   VFR Marginale   IFR   IFR Intensivo   IFR Molto Intensivo
Visibilità : 
Base nubi : 
>= 8 km
>= 3000ft
5 / 8 km
1000 / 3000 ft
1500m / 5 km
500 / 1000 ft
800 / 1500m
200 / 500 ft
< 800m
< 200 ft
Simboli :   Temporali  Nebbia  Neve Forte  Precipitazioni Forti  Vento > 20 kt
SIGMETs :   Varie  Temporali  Ghiacco  Turbolenza  Onda orograficha  Ceneri Vulcaniche






- Altitudine del aeroporto : 226 ft
- Codice IATA : BEX


EGUB - RAF Benson

ULTIMO METAR :
  • 171220Z 24018KT 9999 -SHRA FEW022TCU SCT030 08/05 Q1008 TEMPO 7000 SHRA SCT022 RMK BLU TEMPO WHT

METARs OBSOLETI :
  • 171150Z 23015KT 9999 VCSH FEW025 BKN028 08/05 Q1007 TEMPO 7000 SHRA SCT022 RMK BLU TEMPO WHT
  • 171120Z 22015KT 9999 BKN027 09/04 Q1007 TEMPO 7000 SHRA SCT020 RMK BLU TEMPO WHT
  • 171050Z 21018G28KT 9999 BKN026 08/03 Q1007 TEMPO 7000 SHRA SCT020 RMK BLU TEMPO WHT
  • 171023Z 22018KT 9999 BKN026 08/03 Q1006 TEMPO SCT020 RMK BLU TEMPO WHT
  • 170950Z 22017KT 9999 FEW027 07/03 Q1006 TEMPO SCT020 RMK BLU TEMPO WHT

TAF TAF EGUB
Valido dal 17 a 12 ore il 17 a 20 ore UTC


171054Z 1712/1720 24015KT 9999 FEW022
TEMPO 1712/1720 25018G28KT
PROB40
TEMPO 1712/1718 6000 SHRA SCT022TCU
ATIS : +44 1491-837766 (x7524)



MetMap, La meteo Aeronautica in un colpo d'occhio ! - Copyright ORBIFLY Dicembre 2007 - Disclaimer

ORBIFLY MET'MAP TEAM :

Programmazione e sviluppo : Alexandra Zaïnal
Concezione : Baudouin d'Aumeries
Aiuto per la programmazione : Marc-Olivier Méhu
Supporto tecnico e logistico : Manuel Goepfert
Aiuto per la traduzione : Arnaldo La Scala

Contatto : metmap@orbifly.com




FONTI E CREDITI :

   NOAA